Time;durP1;ratioP1;P1;durP2;ratioP2;P2;SDS_P1;SDS_P2;PMS_P1;PMS_P2;Temp;Humidity;BMP_temperature;BMP_pressure;BME280_temperature;BME280_humidity;BME280_pressure;Samples;Min_cycle;Max_cycle;Signal;HPM_P1;HPM_P2
2023/01/04 00:02:18;;;;;;;;;;;;;;;-143.48;97.81;118439.88;5055332;28;19919;-66
2023/01/04 00:04:44;;;;;;;;;;;;;;;-143.48;98.04;118439.88;5055330;28;19909;-66
2023/01/04 00:07:09;;;;;;;;;;;;;;;-143.48;98.33;118439.88;5055581;28;19912;-65
2023/01/04 00:09:34;;;;;;;;;;;;;;;-143.48;98.92;118439.88;5037903;28;19909;-64
2023/01/04 00:11:59;;;;;;;;;;;;;;;-143.48;99.40;118439.88;5055186;28;19916;-64
2023/01/04 00:14:24;;;;;;;;;;;;;;;-143.48;99.35;118439.88;5055111;28;19915;-66
2023/01/04 00:16:50;;;;;;;;;;;;;;;-143.48;99.15;118439.88;5055150;28;19950;-65
2023/01/04 00:19:15;;;;;;;;;;;;;;;-143.48;99.66;118439.88;5055187;28;20318;-65
2023/01/04 00:21:40;;;;;;;;;;;;;;;-143.48;99.59;118439.88;5037093;28;19955;-65
2023/01/04 00:24:05;;;;;;;;;;;;;;;-143.48;99.68;118439.88;5037141;28;19908;-64
2023/01/04 00:26:32;;;;;;;;;;;;;;;-143.48;99.79;118439.88;5054944;28;19908;-65
2023/01/04 00:28:58;;;;;;;;;;;;;;;-143.48;99.79;118439.88;5054821;28;20382;-66
2023/01/04 00:31:24;;;;;;;;;;;;;;;-143.48;99.89;118439.88;5054960;28;19951;-66
2023/01/04 00:33:52;;;;;;;;;;;;;;;-143.48;100.00;118439.88;5055062;28;19909;-65
2023/01/04 00:36:17;;;;;;;;;;;;;;;-143.48;100.00;118439.88;5037804;28;19912;-65
2023/01/04 00:38:42;;;;;;;;;;;;;;;-143.48;100.00;118439.88;5055156;28;20304;-64
2023/01/04 00:41:08;;;;;;;;;;;;;;;-143.48;100.00;118439.88;5054850;28;19924;-67
2023/01/04 00:43:33;;;;;;;;;;;;;;;-143.48;100.00;118439.88;5055530;28;19909;-66
2023/01/04 00:46:00;;;;;;;;;;;;;;;-143.48;100.00;118439.88;5055533;28;19908;-66
2023/01/04 00:48:25;;;;;;;;;;;;;;;-143.48;100.00;118439.88;5056004;28;19909;-66
2023/01/04 00:50:50;;;;;;;;;;;;;;;-143.48;100.00;118439.88;5037944;28;20253;-65
2023/01/04 00:53:16;;;;;;;;;;;;;;;-143.48;100.00;118439.88;5056041;28;19958;-64
2023/01/04 00:55:42;;;;;;;;;;;;;;;-143.48;100.00;118439.88;5056675;28;19983;-65
2023/01/04 00:58:07;;;;;;;;;;;;;;;-143.48;100.00;118439.88;5059941;28;19909;-66
2023/01/04 01:00:33;;;;;;;;;;;;;;;-143.48;100.00;118439.88;5063049;28;19952;-65
2023/01/04 01:02:58;;;;;;;;;;;;;;;-143.48;100.00;118439.88;5064476;28;19912;-65
2023/01/04 01:05:23;;;;;;;;;;;;;;;-143.48;100.00;118439.88;5066491;28;19936;-66
2023/01/04 01:07:48;;;;;;;;;;;;;;;-143.48;100.00;118439.88;5064388;28;20291;-65
2023/01/04 01:10:13;;;;;;;;;;;;;;;-143.48;100.00;118439.88;5065270;28;19909;-64
2023/01/04 01:12:39;;;;;;;;;;;;;;;-143.48;100.00;118439.88;5065342;28;19909;-64
2023/01/04 01:15:04;;;;;;;;;;;;;;;-143.48;100.00;118439.88;5064158;28;19912;-65
2023/01/04 01:17:29;;;;;;;;;;;;;;;-143.48;100.00;118439.88;5063004;28;19909;-68
2023/01/04 01:19:55;;;;;;;;;;;;;;;-143.48;100.00;118439.88;5071254;28;19909;-67
2023/01/04 01:22:20;;;;;;;;;;;;;;;-143.48;100.00;118439.88;5052649;28;19981;-65
2023/01/04 01:24:45;;;;;;;;;;;;;;;-143.48;100.00;118439.88;5071137;28;19916;-65
2023/01/04 01:27:10;;;;;;;;;;;;;;;-143.48;100.00;118439.88;5069983;28;19916;-65
2023/01/04 01:29:35;;;;;;;;;;;;;;;-143.48;100.00;118439.88;5069732;28;19908;-64
2023/01/04 01:32:01;;;;;;;;;;;;;;;-143.48;100.00;118439.88;5069627;28;19923;-69
2023/01/04 01:34:26;;;;;;;;;;;;;;;-143.48;100.00;118439.88;5066476;28;19908;-64
2023/01/04 01:36:51;;;;;;;;;;;;;;;-143.48;100.00;118439.88;5058878;28;19948;-64
2023/01/04 01:39:16;;;;;;;;;;;;;;;-143.48;100.00;118439.88;5059313;28;19951;-64
2023/01/04 01:41:41;;;;;;;;;;;;;;;-143.48;100.00;118439.88;5056907;28;19912;-64
2023/01/04 01:44:25;;;;;;;;;;;;;;;-143.48;100.00;118439.88;5038629;28;19908;-63
2023/01/04 01:46:51;;;;;;;;;;;;;;;-143.48;100.00;118439.88;5056957;28;19908;-64
2023/01/04 01:49:36;;;;;;;;;;;;;;;-143.48;100.00;118439.88;5055782;28;19966;-63
2023/01/04 01:52:03;;;;;;;;;;;;;;;-143.48;100.00;118439.88;5037303;28;19930;-65
2023/01/04 01:54:31;;;;;;;;;;;;;;;-143.48;100.00;118439.88;5036941;28;19924;-64
2023/01/04 01:56:59;;;;;;;;;;;;;;;-143.48;100.00;118439.88;5054813;28;19913;-64
2023/01/04 01:59:25;;;;;;;;;;;;;;;-143.48;100.00;118439.88;5054582;28;19909;-65
2023/01/04 02:01:50;;;;;;;;;;;;;;;-143.48;100.00;118439.88;5053886;28;19920;-66
2023/01/04 02:04:15;;;;;;;;;;;;;;;-143.48;100.00;118439.88;5053694;28;19909;-65
2023/01/04 02:06:43;;;;;;;;;;;;;;;-143.48;100.00;118439.88;5054060;28;20271;-65
2023/01/04 02:09:08;;;;;;;;;;;;;;;-143.48;100.00;118439.88;5053664;28;19916;-65
2023/01/04 02:11:33;;;;;;;;;;;;;;;-143.48;100.00;118439.88;5054981;28;19987;-66
2023/01/04 02:16:58;;;;;;;;;;;;;;;-143.48;100.00;118439.88;5057757;28;19962;-64
2023/01/04 02:19:42;;;;;;;;;;;;;;;-143.48;100.00;118439.88;5057641;28;19959;-64
2023/01/04 02:22:10;;;;;;;;;;;;;;;-143.48;100.00;118439.88;5057358;28;19912;-64
2023/01/04 02:24:53;;;;;;;;;;;;;;;-143.48;100.00;118439.88;5057327;28;19920;-64
2023/01/04 02:27:43;;;;;;;;;;;;;;;-143.48;100.00;118439.88;5057019;28;19920;-64
2023/01/04 02:30:08;;;;;;;;;;;;;;;-143.48;100.00;118439.88;5057076;28;20360;-64
2023/01/04 02:32:50;;;;;;;;;;;;;;;-143.48;100.00;118439.88;5057111;28;19915;-64
2023/01/04 02:35:24;;;;;;;;;;;;;;;-143.48;100.00;118439.88;5057156;28;19944;-65
2023/01/04 02:38:04;;;;;;;;;;;;;;;-143.48;100.00;118439.88;5057052;28;19909;-64
2023/01/04 02:40:55;;;;;;;;;;;;;;;-143.48;100.00;118439.88;5057054;28;19909;-65
2023/01/04 02:46:16;;;;;;;;;;;;;;;-143.48;100.00;118439.88;5057381;28;19924;-64
2023/01/04 02:51:27;;;;;;;;;;;;;;;-143.48;100.00;118439.88;5056913;28;19923;-65
2023/01/04 02:53:53;;;;;;;;;;;;;;;-143.48;100.00;118439.88;5056843;28;19908;-65
2023/01/04 02:56:42;;;;;;;;;;;;;;;-143.48;100.00;118439.88;5056810;28;19912;-66
2023/01/04 02:59:22;;;;;;;;;;;;;;;-143.48;100.00;118439.88;5038737;28;19908;-65
2023/01/04 03:07:33;;;;;;;;;;;;;;;-143.48;100.00;118439.88;5056940;28;19916;-65
2023/01/04 03:10:03;;;;;;;;;;;;;;;-143.48;100.00;118439.88;5038493;28;20256;-65
2023/01/04 03:12:30;;;;;;;;;;;;;;;-143.48;100.00;118439.88;5038579;28;19919;-65
2023/01/04 03:15:16;;;;;;;;;;;;;;;-143.48;100.00;118439.88;5056502;28;19909;-65
2023/01/04 03:17:48;;;;;;;;;;;;;;;-143.48;100.00;118439.88;5055809;28;20420;-64
2023/01/04 03:20:15;;;;;;;;;;;;;;;-143.48;100.00;118439.88;5056291;28;19944;-63
2023/01/04 03:37:23;;;;;;;;;;;;;;;-143.48;100.00;118439.88;5055882;28;19915;-64
2023/01/04 03:48:32;;;;;;;;;;;;;;;-143.48;100.00;118439.88;5055773;28;19955;-65
2023/01/04 03:50:57;;;;;;;;;;;;;;;-143.48;100.00;118439.88;5055530;28;19962;-65
2023/01/04 03:53:23;;;;;;;;;;;;;;;-143.48;100.00;118439.88;5055537;28;20303;-64
2023/01/04 03:55:50;;;;;;;;;;;;;;;-143.48;100.00;118439.88;5055455;28;19920;-64
2023/01/04 03:58:16;;;;;;;;;;;;;;;-143.48;100.00;118439.88;5037672;28;19908;-64
2023/01/04 04:00:42;;;;;;;;;;;;;;;-143.48;100.00;118439.88;5055502;28;19991;-64
2023/01/04 04:03:07;;;;;;;;;;;;;;;-143.48;100.00;118439.88;5055664;28;20019;-65
2023/01/04 04:08:23;;;;;;;;;;;;;;;-143.48;100.00;118439.88;5055606;28;19916;-64
2023/01/04 04:10:48;;;;;;;;;;;;;;;-143.48;100.00;118439.88;5055353;28;19913;-64
2023/01/04 04:13:13;;;;;;;;;;;;;;;-143.48;100.00;118439.88;5037348;28;19908;-64
2023/01/04 04:15:39;;;;;;;;;;;;;;;-143.48;100.00;118439.88;5055175;28;19909;-64
2023/01/04 04:18:04;;;;;;;;;;;;;;;-143.48;100.00;118439.88;5037376;28;19909;-66
2023/01/04 04:20:29;;;;;;;;;;;;;;;-143.48;100.00;118439.88;5055050;28;19959;-64
2023/01/04 04:22:54;;;;;;;;;;;;;;;-143.48;100.00;118439.88;5054898;28;19919;-65
2023/01/04 04:25:20;;;;;;;;;;;;;;;-143.48;100.00;118439.88;5054950;28;19914;-66
2023/01/04 04:27:45;;;;;;;;;;;;;;;-143.48;100.00;118439.88;5054755;28;19978;-65
2023/01/04 04:30:10;;;;;;;;;;;;;;;-143.48;100.00;118439.88;5054939;28;19909;-65
2023/01/04 04:32:35;;;;;;;;;;;;;;;-143.48;100.00;118439.88;5054865;28;19916;-65
2023/01/04 04:35:00;;;;;;;;;;;;;;;-143.48;100.00;118439.88;5053985;28;19913;-65
2023/01/04 04:37:27;;;;;;;;;;;;;;;-143.48;100.00;118439.88;5054820;28;19955;-65
2023/01/04 04:39:52;;;;;;;;;;;;;;;-143.48;100.00;118439.88;5054744;28;19908;-65
2023/01/04 04:42:17;;;;;;;;;;;;;;;-143.48;100.00;118439.88;5054595;28;19970;-65
2023/01/04 04:44:42;;;;;;;;;;;;;;;-143.48;100.00;118439.88;5054520;28;19909;-66
2023/01/04 04:47:08;;;;;;;;;;;;;;;-143.48;100.00;118439.88;5054659;28;20275;-65
2023/01/04 04:49:33;;;;;;;;;;;;;;;-143.48;100.00;118439.88;5054578;28;20371;-65
2023/01/04 04:51:58;;;;;;;;;;;;;;;-143.48;100.00;118439.88;5036561;28;19909;-65
2023/01/04 04:54:23;;;;;;;;;;;;;;;-143.48;100.00;118439.88;5054690;28;19916;-65
2023/01/04 04:56:49;;;;;;;;;;;;;;;-143.48;100.00;118439.88;5054347;28;19923;-65
2023/01/04 04:59:14;;;;;;;;;;;;;;;-143.48;100.00;118439.88;5054553;28;19908;-65
2023/01/04 05:01:39;;;;;;;;;;;;;;;-143.48;100.00;118439.88;5054075;28;19995;-66
2023/01/04 05:04:04;;;;;;;;;;;;;;;-143.48;100.00;118439.88;5054266;28;19912;-65
2023/01/04 05:06:30;;;;;;;;;;;;;;;-143.48;100.00;118439.88;5036267;28;19986;-65
2023/01/04 05:08:55;;;;;;;;;;;;;;;-143.48;100.00;118439.88;5054128;28;19963;-65
2023/01/04 05:12:58;;;;;;;;;;;;;;;-143.48;100.00;118439.88;5052826;28;19955;-64
2023/01/04 05:14:05;;;;;;;;;;;;;;;-143.48;100.00;118439.88;5053965;28;19913;-64
2023/01/04 05:16:30;;;;;;;;;;;;;;;-143.48;100.00;118439.88;5036299;28;19909;-64
2023/01/04 05:18:55;;;;;;;;;;;;;;;-143.48;100.00;118439.88;5054064;28;19954;-64
2023/01/04 05:21:21;;;;;;;;;;;;;;;-143.48;100.00;118439.88;5053797;28;19958;-64
2023/01/04 05:23:46;;;;;;;;;;;;;;;-143.48;100.00;118439.88;5053930;28;20394;-64
2023/01/04 05:26:11;;;;;;;;;;;;;;;-143.48;100.00;118439.88;5053807;28;19908;-64
2023/01/04 05:28:36;;;;;;;;;;;;;;;-143.48;100.00;118439.88;5054061;28;20066;-64
2023/01/04 05:31:01;;;;;;;;;;;;;;;-143.48;100.00;118439.88;5053936;28;19916;-65
2023/01/04 05:33:28;;;;;;;;;;;;;;;-143.48;100.00;118439.88;5035974;28;19908;-66
2023/01/04 05:35:54;;;;;;;;;;;;;;;-143.48;100.00;118439.88;5053820;28;19962;-65
2023/01/04 05:38:20;;;;;;;;;;;;;;;-143.48;100.00;118439.88;5053684;28;19909;-64
2023/01/04 05:40:45;;;;;;;;;;;;;;;-143.48;100.00;118439.88;5053563;28;19916;-65
2023/01/04 05:43:12;;;;;;;;;;;;;;;-143.48;100.00;118439.88;5053658;28;19916;-65
2023/01/04 05:45:38;;;;;;;;;;;;;;;-143.48;100.00;118439.88;5035730;28;19908;-66
2023/01/04 05:48:03;;;;;;;;;;;;;;;-143.48;100.00;118439.88;5053529;28;20268;-64
2023/01/04 05:50:28;;;;;;;;;;;;;;;-143.48;100.00;118439.88;5053728;28;19912;-65
2023/01/04 05:52:53;;;;;;;;;;;;;;;-143.48;100.00;118439.88;5053647;28;19909;-65
2023/01/04 05:55:19;;;;;;;;;;;;;;;-143.48;100.00;118439.88;5035664;28;19909;-65
2023/01/04 05:57:44;;;;;;;;;;;;;;;-143.48;100.00;118439.88;5053479;28;19932;-65
2023/01/04 06:00:11;;;;;;;;;;;;;;;-143.48;100.00;118439.88;5053426;28;19913;-65
2023/01/04 06:02:36;;;;;;;;;;;;;;;-143.48;100.00;118439.88;5053277;28;19913;-64
2023/01/04 06:05:01;;;;;;;;;;;;;;;-143.48;100.00;118439.88;5053449;28;19916;-64
2023/01/04 06:07:27;;;;;;;;;;;;;;;-143.48;100.00;118439.88;5053489;28;20003;-64
2023/01/04 06:09:52;;;;;;;;;;;;;;;-143.48;100.00;118439.88;5053381;28;20364;-64
2023/01/04 06:12:18;;;;;;;;;;;;;;;-143.48;100.00;118439.88;5053346;28;19913;-65
2023/01/04 06:14:43;;;;;;;;;;;;;;;-143.48;100.00;118439.88;5053386;28;19912;-64
2023/01/04 06:17:08;;;;;;;;;;;;;;;-143.48;100.00;118439.88;5035430;28;20338;-65
2023/01/04 06:19:33;;;;;;;;;;;;;;;-143.48;100.00;118439.88;5053558;28;19909;-65
2023/01/04 06:21:59;;;;;;;;;;;;;;;-143.48;100.00;118439.88;5053248;28;20027;-64
2023/01/04 06:24:24;;;;;;;;;;;;;;;-143.48;100.00;118439.88;5035352;28;19912;-64
2023/01/04 06:26:49;;;;;;;;;;;;;;;-143.48;100.00;118439.88;5053108;28;19908;-64
2023/01/04 06:29:15;;;;;;;;;;;;;;;-143.48;100.00;118439.88;5053244;28;20256;-64
2023/01/04 06:31:40;;;;;;;;;;;;;;;-143.48;100.00;118439.88;5053240;28;19958;-64
2023/01/04 06:34:05;;;;;;;;;;;;;;;-143.48;100.00;118439.88;5051870;28;19955;-65
2023/01/04 06:36:31;;;;;;;;;;;;;;;-143.48;100.00;118439.88;5053088;28;20020;-63
2023/01/04 06:38:57;;;;;;;;;;;;;;;-143.48;100.00;118439.88;5052929;28;19932;-64
2023/01/04 06:41:22;;;;;;;;;;;;;;;-143.48;100.00;118439.88;5034870;28;19920;-65
2023/01/04 06:43:47;;;;;;;;;;;;;;;-143.48;100.00;118439.88;5053052;28;19909;-64
2023/01/04 06:46:12;;;;;;;;;;;;;;;-143.48;100.00;118439.88;5052871;28;20284;-64
2023/01/04 06:48:38;;;;;;;;;;;;;;;-143.48;100.00;118439.88;5052970;28;19920;-64
2023/01/04 06:51:03;;;;;;;;;;;;;;;-143.48;100.00;118439.88;5035075;28;19935;-63
2023/01/04 06:53:28;;;;;;;;;;;;;;;-143.48;100.00;118439.88;5052889;28;19909;-64
2023/01/04 06:55:53;;;;;;;;;;;;;;;-143.48;100.00;118439.88;5035182;28;19947;-64
2023/01/04 06:58:19;;;;;;;;;;;;;;;-143.48;100.00;118439.88;5037587;28;19959;-64
2023/01/04 07:00:45;;;;;;;;;;;;;;;-143.48;100.00;118439.88;5056505;28;19909;-64
2023/01/04 07:03:10;;;;;;;;;;;;;;;-143.48;100.00;118439.88;5055580;28;19913;-65
2023/01/04 07:05:35;;;;;;;;;;;;;;;-143.48;100.00;118439.88;5056660;28;20357;-64
2023/01/04 07:08:01;;;;;;;;;;;;;;;-143.48;100.00;118439.88;5056820;28;20363;-64
2023/01/04 07:10:27;;;;;;;;;;;;;;;-143.48;100.00;118439.88;5056457;28;19913;-64
2023/01/04 07:12:52;;;;;;;;;;;;;;;-143.48;100.00;118439.88;5057283;28;19912;-64
2023/01/04 07:15:17;;;;;;;;;;;;;;;-143.48;100.00;118439.88;5064260;28;20426;-64
2023/01/04 07:17:45;;;;;;;;;;;;;;;-143.48;100.00;118439.88;5040735;28;19908;-64
2023/01/04 07:20:10;;;;;;;;;;;;;;;-143.48;100.00;118439.88;5056418;28;19955;-64
2023/01/04 07:22:36;;;;;;;;;;;;;;;-143.48;100.00;118439.88;5056054;28;20410;-64
2023/01/04 07:25:01;;;;;;;;;;;;;;;-143.48;100.00;118439.88;5056235;28;20011;-65
2023/01/04 07:27:26;;;;;;;;;;;;;;;-143.48;100.00;118439.88;5056033;28;19923;-64
2023/01/04 07:29:51;;;;;;;;;;;;;;;-143.48;100.00;118439.88;5056187;28;19931;-64
2023/01/04 07:32:16;;;;;;;;;;;;;;;-143.48;100.00;118439.88;5056068;28;19988;-65
2023/01/04 07:34:42;;;;;;;;;;;;;;;-143.48;100.00;118439.88;5056142;28;19934;-65
2023/01/04 07:37:11;;;;;;;;;;;;;;;-143.48;100.00;118439.88;5056110;28;19908;-64
2023/01/04 07:39:37;;;;;;;;;;;;;;;-143.48;100.00;118439.88;5038102;28;19908;-64
2023/01/04 07:42:02;;;;;;;;;;;;;;;-143.48;100.00;118439.88;5055778;28;20407;-64
2023/01/04 07:44:27;;;;;;;;;;;;;;;-143.48;100.00;118439.88;5055806;28;20292;-64
2023/01/04 07:46:53;;;;;;;;;;;;;;;-143.48;100.00;118439.88;5055792;28;19908;-64
2023/01/04 07:49:18;;;;;;;;;;;;;;;-143.48;100.00;118439.88;5055897;28;19912;-64
2023/01/04 07:51:44;;;;;;;;;;;;;;;-143.48;100.00;118439.88;5037717;28;19909;-64
2023/01/04 07:54:10;;;;;;;;;;;;;;;-143.48;100.00;118439.88;5037715;28;19942;-65
2023/01/04 07:56:35;;;;;;;;;;;;;;;-143.48;100.00;118439.88;5055511;28;20338;-64
2023/01/04 07:59:00;;;;;;;;;;;;;;;-143.48;100.00;118439.88;5055512;28;20398;-64
2023/01/04 08:01:26;;;;;;;;;;;;;;;-143.48;100.00;118439.88;5055668;28;19959;-64
2023/01/04 08:03:51;;;;;;;;;;;;;;;-143.48;100.00;118439.88;5055366;28;19909;-65
2023/01/04 08:06:18;;;;;;;;;;;;;;;-143.48;100.00;118439.88;5037357;28;19951;-64
2023/01/04 08:08:43;;;;;;;;;;;;;;;-143.48;100.00;118439.88;5054164;28;19908;-65
2023/01/04 08:11:10;;;;;;;;;;;;;;;-143.48;100.00;118439.88;5055421;28;20325;-64
2023/01/04 08:13:36;;;;;;;;;;;;;;;-143.48;100.00;118439.88;5056617;28;19995;-64
2023/01/04 08:16:01;;;;;;;;;;;;;;;-143.48;100.00;118439.88;5056438;28;19982;-64
2023/01/04 08:18:26;;;;;;;;;;;;;;;-143.48;100.00;118439.88;5055175;28;20409;-64
2023/01/04 08:21:01;;;;;;;;;;;;;;;-143.48;100.00;118439.88;5055228;28;19917;-64
2023/01/04 08:23:26;;;;;;;;;;;;;;;-143.48;100.00;118439.88;5055534;28;19915;-64
2023/01/04 08:25:51;;;;;;;;;;;;;;;-143.48;100.00;118439.88;5055420;28;19908;-65
2023/01/04 08:28:17;;;;;;;;;;;;;;;-143.48;100.00;118439.88;5055129;28;20003;-65
2023/01/04 08:30:42;;;;;;;;;;;;;;;-143.48;100.00;118439.88;5055472;28;19908;-65
2023/01/04 08:33:14;;;;;;;;;;;;;;;-143.48;100.00;118439.88;5037149;28;19995;-65
2023/01/04 08:35:39;;;;;;;;;;;;;;;-143.48;100.00;118439.88;5055071;28;19958;-65
2023/01/04 08:38:04;;;;;;;;;;;;;;;-143.48;100.00;118439.88;5055044;28;19913;-65
2023/01/04 08:40:30;;;;;;;;;;;;;;;-143.48;100.00;118439.88;5054873;28;19915;-65
2023/01/04 08:42:55;;;;;;;;;;;;;;;-143.48;100.00;118439.88;5054850;28;19913;-65
2023/01/04 08:45:20;;;;;;;;;;;;;;;-143.48;100.00;118439.88;5054688;28;19908;-65
2023/01/04 08:47:45;;;;;;;;;;;;;;;-143.48;100.00;118439.88;5054546;28;19939;-64
2023/01/04 08:50:11;;;;;;;;;;;;;;;-143.48;100.00;118439.88;5054712;28;19915;-65
2023/01/04 08:52:36;;;;;;;;;;;;;;;-143.48;100.00;118439.88;5036538;28;19909;-65
2023/01/04 08:55:01;;;;;;;;;;;;;;;-143.48;100.00;118439.88;5054580;28;19963;-65
2023/01/04 08:57:26;;;;;;;;;;;;;;;-143.48;100.00;118439.88;5055573;28;19908;-65
2023/01/04 08:59:51;;;;;;;;;;;;;;;-143.48;100.00;118439.88;5054640;28;19934;-65
2023/01/04 09:02:24;;;;;;;;;;;;;;;-143.48;100.00;118439.88;5056036;28;20351;-65
2023/01/04 09:04:49;;;;;;;;;;;;;;;-143.48;100.00;118439.88;5054573;28;19912;-65
2023/01/04 09:07:14;;;;;;;;;;;;;;;-143.48;100.00;118439.88;5054313;28;20372;-65
2023/01/04 09:09:40;;;;;;;;;;;;;;;-143.48;100.00;118439.88;5036639;28;19909;-65
2023/01/04 09:12:05;;;;;;;;;;;;;;;-143.48;100.00;118439.88;5054375;28;20020;-65
2023/01/04 09:14:30;;;;;;;;;;;;;;;-143.48;100.00;118439.88;5054335;28;20329;-65
2023/01/04 09:16:55;;;;;;;;;;;;;;;-143.48;100.00;118439.88;5054215;28;19909;-64
2023/01/04 09:19:21;;;;;;;;;;;;;;;-143.48;100.00;118439.88;5054335;28;19943;-65
2023/01/04 09:21:46;;;;;;;;;;;;;;;-143.48;100.00;118439.88;5053796;28;19959;-65
2023/01/04 09:24:12;;;;;;;;;;;;;;;-143.48;100.00;118439.88;5054213;28;20022;-64
2023/01/04 09:26:38;;;;;;;;;;;;;;;-143.48;100.00;118439.88;5054157;28;19909;-65
2023/01/04 09:29:04;;;;;;;;;;;;;;;-143.48;100.00;118439.88;5035933;28;19917;-64
2023/01/04 09:31:29;;;;;;;;;;;;;;;-143.48;100.00;118439.88;5053990;28;19913;-65
2023/01/04 09:33:55;;;;;;;;;;;;;;;-143.48;100.00;118439.88;5036202;28;19986;-64
2023/01/04 09:36:22;;;;;;;;;;;;;;;-143.48;100.00;118439.88;5053895;28;19913;-65
2023/01/04 09:38:48;;;;;;;;;;;;;;;-143.48;100.00;118439.88;5053868;28;19951;-65
2023/01/04 09:41:13;;;;;;;;;;;;;;;-143.48;100.00;118439.88;5053889;28;19952;-66
2023/01/04 09:43:48;;;;;;;;;;;;;;;-143.48;100.00;118439.88;5053795;28;19913;-65
2023/01/04 09:46:34;;;;;;;;;;;;;;;-143.48;100.00;118439.88;5053947;28;19909;-64
2023/01/04 09:49:08;;;;;;;;;;;;;;;-143.48;100.00;118439.88;5053258;28;20408;-64
2023/01/04 09:51:35;;;;;;;;;;;;;;;-143.48;100.00;118439.88;5035920;28;20360;-65
2023/01/04 09:54:04;;;;;;;;;;;;;;;-143.48;100.00;118439.88;5053776;28;19908;-65
2023/01/04 09:56:34;;;;;;;;;;;;;;;-143.48;100.00;118439.88;5053819;28;20328;-65
2023/01/04 09:59:01;;;;;;;;;;;;;;;-143.48;100.00;118439.88;5053847;28;19916;-65
2023/01/04 10:01:38;;;;;;;;;;;;;;;-143.48;100.00;118439.88;5053666;28;20375;-65
2023/01/04 10:04:03;;;;;;;;;;;;;;;-143.48;100.00;118439.88;5036030;28;19916;-65
2023/01/04 10:06:29;;;;;;;;;;;;;;;-143.48;100.00;118439.88;5053644;28;19909;-66
2023/01/04 10:08:59;;;;;;;;;;;;;;;-143.48;100.00;118439.88;5053477;28;20380;-64
2023/01/04 10:11:41;;;;;;;;;;;;;;;-143.48;100.00;118439.88;5053419;28;20035;-64
2023/01/04 10:14:18;;;;;;;;;;;;;;;-143.48;100.00;118439.88;5053616;28;19916;-65
2023/01/04 10:16:43;;;;;;;;;;;;;;;-143.48;100.00;118439.88;5053533;28;20376;-64
2023/01/04 10:19:21;;;;;;;;;;;;;;;-143.48;100.00;118439.88;5053377;28;19916;-65
2023/01/04 10:21:50;;;;;;;;;;;;;;;-143.48;100.00;118439.88;5053226;28;19912;-65
2023/01/04 10:24:39;;;;;;;;;;;;;;;-143.48;100.00;118439.88;5053523;28;19909;-64
2023/01/04 10:27:07;;;;;;;;;;;;;;;-143.48;100.00;118439.88;5053394;28;19948;-64
2023/01/04 10:29:45;;;;;;;;;;;;;;;-143.48;100.00;118439.88;5053223;28;19998;-66
2023/01/04 10:32:14;;;;;;;;;;;;;;;-143.48;100.00;118439.88;5053580;28;20296;-64
2023/01/04 10:34:41;;;;;;;;;;;;;;;-143.48;100.00;118439.88;5057085;28;19912;-65
2023/01/04 10:37:23;;;;;;;;;;;;;;;-143.48;100.00;118439.88;5056925;28;19915;-64
2023/01/04 10:39:53;;;;;;;;;;;;;;;-143.48;100.00;118439.88;5057141;28;20392;-65
2023/01/04 10:42:21;;;;;;;;;;;;;;;-143.48;100.00;118439.88;5057039;28;19916;-64
2023/01/04 10:45:01;;;;;;;;;;;;;;;-143.48;100.00;118439.88;5039124;28;20352;-65
2023/01/04 10:47:45;;;;;;;;;;;;;;;-143.48;100.00;118439.88;5057015;28;19909;-65
2023/01/04 10:50:16;;;;;;;;;;;;;;;-143.48;100.00;118439.88;5056841;28;20382;-64
2023/01/04 10:52:48;;;;;;;;;;;;;;;-143.48;100.00;118439.88;5038940;28;19923;-64
2023/01/04 10:55:26;;;;;;;;;;;;;;;-143.48;100.00;118439.88;5056894;28;20442;-65
2023/01/04 10:57:58;;;;;;;;;;;;;;;-143.48;100.00;118439.88;5038842;28;19915;-64
2023/01/04 11:00:33;;;;;;;;;;;;;;;-143.48;100.00;118439.88;5056821;28;19908;-64
2023/01/04 11:03:01;;;;;;;;;;;;;;;-143.48;100.00;118439.88;5056682;28;20370;-64
2023/01/04 11:05:34;;;;;;;;;;;;;;;-143.48;100.00;118439.88;5056613;28;19908;-64
2023/01/04 11:08:04;;;;;;;;;;;;;;;-143.48;100.00;118439.88;5056750;28;20402;-64
2023/01/04 11:10:34;;;;;;;;;;;;;;;-143.48;100.00;118439.88;5056578;28;19912;-64
2023/01/04 11:12:59;;;;;;;;;;;;;;;-143.48;100.00;118439.88;5056481;28;20425;-63
2023/01/04 11:15:25;;;;;;;;;;;;;;;-143.48;100.00;118439.88;5039142;28;19912;-63
2023/01/04 11:17:50;;;;;;;;;;;;;;;-143.48;100.00;118439.88;5056535;28;19915;-63
2023/01/04 11:20:16;;;;;;;;;;;;;;;-143.48;100.00;118439.88;5056352;28;20375;-63
2023/01/04 11:22:45;;;;;;;;;;;;;;;-143.48;100.00;118439.88;5056437;28;20026;-63
2023/01/04 11:25:16;;;;;;;;;;;;;;;-143.48;100.00;118439.88;5056330;28;19958;-62
2023/01/04 11:27:45;;;;;;;;;;;;;;;-143.48;100.00;118439.88;5038233;28;19924;-64
2023/01/04 11:30:13;;;;;;;;;;;;;;;-143.48;100.00;118439.88;5056224;28;19909;-64
2023/01/04 11:32:46;;;;;;;;;;;;;;;-143.48;100.00;118439.88;5056429;28;19971;-64
2023/01/04 11:35:11;;;;;;;;;;;;;;;-143.48;100.00;118439.88;5056683;28;20360;-63
2023/01/04 11:37:38;;;;;;;;;;;;;;;-143.48;100.00;118439.88;5056158;28;19916;-62
2023/01/04 11:40:18;;;;;;;;;;;;;;;-143.48;100.00;118439.88;5056284;28;19909;-64
2023/01/04 11:42:44;;;;;;;;;;;;;;;-143.48;100.00;118439.88;5055835;28;19913;-63
2023/01/04 11:45:27;;;;;;;;;;;;;;;-143.48;100.00;118439.88;5055886;28;19909;-65
2023/01/04 11:47:53;;;;;;;;;;;;;;;-143.48;100.00;118439.88;5037926;28;19916;-64
2023/01/04 11:50:39;;;;;;;;;;;;;;;-143.48;99.64;118439.88;5055469;28;19912;-64
2023/01/04 11:53:24;;;;;;;;;;;;;;;-143.48;98.58;118439.88;5054388;28;20283;-62
2023/01/04 11:55:50;;;;;;;;;;;;;;;-143.48;97.50;118439.88;5053854;28;20299;-64
2023/01/04 11:58:17;;;;;;;;;;;;;;;-143.48;97.54;118439.88;5054886;28;19909;-65
2023/01/04 12:00:52;;;;;;;;;;;;;;;-143.48;96.82;118439.88;5054191;28;19915;-66
2023/01/04 12:03:38;;;;;;;;;;;;;;;-143.48;96.80;118439.88;5054182;28;20019;-64
2023/01/04 12:06:12;;;;;;;;;;;;;;;-143.48;96.39;118439.88;5054310;28;19916;-65
2023/01/04 12:08:38;;;;;;;;;;;;;;;-143.48;95.90;118439.88;5053921;28;19915;-64
2023/01/04 12:11:04;;;;;;;;;;;;;;;-143.48;96.11;118439.88;5055335;28;19912;-66
2023/01/04 12:13:31;;;;;;;;;;;;;;;-143.48;95.96;118439.88;5055494;28;19916;-63
2023/01/04 12:15:56;;;;;;;;;;;;;;;-143.48;96.16;118439.88;5055245;28;20003;-65
2023/01/04 12:18:25;;;;;;;;;;;;;;;-143.48;96.12;118439.88;5055235;28;20001;-65
2023/01/04 12:20:50;;;;;;;;;;;;;;;-143.48;96.16;118439.88;5055325;28;19908;-64
2023/01/04 12:23:15;;;;;;;;;;;;;;;-143.48;96.12;118439.88;5055103;28;20015;-65
2023/01/04 12:25:48;;;;;;;;;;;;;;;-143.48;96.05;118439.88;5055238;28;20344;-64
2023/01/04 12:28:47;;;;;;;;;;;;;;;-143.48;95.23;118439.88;5054869;28;19916;-64
2023/01/04 12:31:18;;;;;;;;;;;;;;;-143.48;95.91;118439.88;5032167;28;19935;-64
2023/01/04 12:33:43;;;;;;;;;;;;;;;-143.48;95.19;118439.88;5055273;28;19908;-65
2023/01/04 12:36:10;;;;;;;;;;;;;;;-143.48;93.95;118439.88;5055109;28;19991;-65
2023/01/04 12:38:55;;;;;;;;;;;;;;;-143.48;93.93;118439.88;5055046;28;19934;-65
2023/01/04 12:41:22;;;;;;;;;;;;;;;-143.48;95.00;118439.88;5055077;28;20285;-64
2023/01/04 12:43:48;;;;;;;;;;;;;;;-143.48;94.57;118439.88;5054979;28;19965;-64
2023/01/04 12:49:22;;;;;;;;;;;;;;;-143.48;94.70;118439.88;5054728;28;19915;-65
2023/01/04 12:51:47;;;;;;;;;;;;;;;-143.48;94.43;118439.88;5054475;28;20394;-64
2023/01/04 12:54:23;;;;;;;;;;;;;;;-143.48;93.52;118439.88;5054276;28;19909;-65
2023/01/04 12:57:07;;;;;;;;;;;;;;;-143.48;93.29;118439.88;5036275;28;20272;-64